Time;durP1;ratioP1;P1;durP2;ratioP2;P2;SDS_P1;SDS_P2;PMS_P1;PMS_P2;Temp;Humidity;BMP_temperature;BMP_pressure;BME280_temperature;BME280_humidity;BME280_pressure;Samples;Min_cycle;Max_cycle;Signal;HPM_P1;HPM_P2
2021/06/27 00:01:36;;;;;;;15.50;11.35;;;;;15.40;100024.00;;;;5086856;28;20445;-78
2021/06/27 00:04:03;;;;;;;7.70;5.43;;;;;15.50;100027.00;;;;5087813;28;20028;-78
2021/06/27 00:06:29;;;;;;;22.98;10.70;;;;;15.50;100052.00;;;;5087496;28;20032;-79
2021/06/27 00:08:56;;;;;;;13.63;8.70;;;;;15.50;100014.00;;;;5087400;28;20046;-79
2021/06/27 00:11:25;;;;;;;22.45;8.57;;;;;15.50;100017.00;;;;5088556;28;20427;-79
2021/06/27 00:13:52;;;;;;;9.00;6.15;;;;;15.50;100007.00;;;;5087380;28;20030;-76
2021/06/27 00:16:20;;;;;;;8.52;5.78;;;;;15.60;99973.00;;;;5087994;28;20030;-80
2021/06/27 00:18:47;;;;;;;9.02;5.25;;;;;15.60;99975.00;;;;5087899;28;20107;-80
2021/06/27 00:21:15;;;;;;;11.55;4.38;;;;;15.60;99978.00;;;;5087877;28;20143;-80
2021/06/27 00:23:46;;;;;;;5.82;4.38;;;;;15.60;99972.00;;;;5087677;28;20105;-80
2021/06/27 00:26:15;;;;;;;6.50;5.38;;;;;15.60;99955.00;;;;5087617;28;20086;-80
2021/06/27 00:28:42;;;;;;;7.38;5.22;;;;;15.60;99943.00;;;;5087051;28;20449;-80
2021/06/27 00:31:10;;;;;;;5.15;3.95;;;;;15.70;99942.00;;;;5087665;28;20035;-82
2021/06/27 00:33:37;;;;;;;5.70;4.72;;;;;15.70;99925.00;;;;5088118;28;20155;-81
2021/06/27 00:36:05;;;;;;;7.93;4.75;;;;;15.70;99915.00;;;;5069461;28;20535;-81
2021/06/27 00:38:32;;;;;;;7.10;3.58;;;;;15.70;99930.00;;;;5088363;28;20073;-81
2021/06/27 00:41:00;;;;;;;9.85;4.28;;;;;15.60;99896.00;;;;5086264;28;20035;-79
2021/06/27 00:43:26;;;;;;;6.60;3.75;;;;;15.60;99918.00;;;;5068907;28;20020;-79
2021/06/27 00:45:53;;;;;;;6.53;4.10;;;;;15.60;99917.00;;;;5086983;28;20032;-80
2021/06/27 00:48:20;;;;;;;5.50;4.53;;;;;15.60;99914.00;;;;5086969;28;20026;-79
2021/06/27 00:50:50;;;;;;;10.00;4.93;;;;;15.60;99886.00;;;;5086679;28;20516;-77
2021/06/27 00:53:17;;;;;;;5.03;3.90;;;;;15.60;99910.00;;;;5086900;28;20032;-78
2021/06/27 00:55:46;;;;;;;5.55;4.15;;;;;15.60;99892.00;;;;5086968;28;20035;-79
2021/06/27 00:58:12;;;;;;;5.20;3.67;;;;;15.60;99962.00;;;;5086731;28;20059;-79
2021/06/27 01:00:41;;;;;;;8.23;3.90;;;;;15.60;100049.00;;;;5068352;28;20113;-79
2021/06/27 01:03:09;;;;;;;6.35;4.57;;;;;15.60;100049.00;;;;5087575;28;20138;-77
2021/06/27 01:05:38;;;;;;;22.23;6.38;;;;;15.50;100036.00;;;;5086618;28;20031;-80
2021/06/27 01:08:06;;;;;;;19.70;6.72;;;;;15.50;99977.00;;;;5086885;28;20024;-80
2021/06/27 01:10:33;;;;;;;13.10;5.75;;;;;15.50;99973.00;;;;5086718;28;20470;-79
2021/06/27 01:13:02;;;;;;;8.45;5.45;;;;;15.50;99947.00;;;;5087007;28;20153;-78
2021/06/27 01:15:28;;;;;;;6.00;4.47;;;;;15.50;99919.00;;;;5086733;28;20036;-77
2021/06/27 01:17:56;;;;;;;8.65;4.80;;;;;15.50;99923.00;;;;5086069;28;20097;-78
2021/06/27 01:20:26;;;;;;;8.77;5.32;;;;;15.50;99925.00;;;;5086479;28;20506;-77
2021/06/27 01:22:54;;;;;;;6.88;4.15;;;;;15.50;99954.00;;;;5085752;28;20031;-76
2021/06/27 01:25:27;;;;;;;4.55;3.25;;;;;15.60;99966.00;;;;5086927;28;20028;-78
2021/06/27 01:27:54;;;;;;;8.50;4.68;;;;;15.50;99911.00;;;;5086904;28;20024;-74
2021/06/27 01:30:23;;;;;;;6.82;3.92;;;;;15.50;99947.00;;;;5085915;28;20491;-75
2021/06/27 01:32:52;;;;;;;5.10;2.67;;;;;15.60;100078.00;;;;5086307;28;20407;-75
2021/06/27 01:35:21;;;;;;;96.03;6.93;;;;;15.60;100056.00;;;;5086123;28;20518;-79
2021/06/27 01:37:52;;;;;;;125.20;8.18;;;;;15.50;99995.00;;;;5086627;28;20043;-79
2021/06/27 01:40:20;;;;;;;7.50;3.83;;;;;15.60;99983.00;;;;5087848;28;20028;-79
2021/06/27 01:42:48;;;;;;;5.28;3.85;;;;;15.50;99945.00;;;;5086483;28;20047;-77
2021/06/27 01:45:23;;;;;;;6.60;3.40;;;;;15.50;99933.00;;;;5086318;28;20078;-78
2021/06/27 01:47:58;;;;;;;6.18;3.80;;;;;15.50;99953.00;;;;5086206;28;20112;-75
2021/06/27 01:50:27;;;;;;;6.30;4.40;;;;;15.50;99961.00;;;;5086429;28;20070;-74
2021/06/27 01:52:55;;;;;;;11.20;5.53;;;;;15.50;99951.00;;;;5086427;28;20028;-77
2021/06/27 01:55:24;;;;;;;7.30;3.83;;;;;15.50;99949.00;;;;5086865;28;20526;-76
2021/06/27 01:57:52;;;;;;;6.20;4.30;;;;;15.50;99950.00;;;;5086410;28;20087;-76
2021/06/27 02:00:20;;;;;;;6.68;3.75;;;;;15.60;99929.00;;;;5086029;28;20090;-76
2021/06/27 02:02:48;;;;;;;5.65;3.10;;;;;15.60;99957.00;;;;5079349;28;20411;-77
2021/06/27 02:05:14;;;;;;;3.85;2.63;;;;;15.60;99961.00;;;;5086145;28;20483;-76
2021/06/27 02:07:41;;;;;;;7.15;3.35;;;;;15.60;99955.00;;;;5086392;28;20039;-77
2021/06/27 02:10:14;;;;;;;5.60;3.97;;;;;15.60;99973.00;;;;5085743;28;20032;-75
2021/06/27 02:12:40;;;;;;;9.32;3.88;;;;;15.60;99962.00;;;;5083070;28;20032;-75
2021/06/27 02:15:09;;;;;;;6.50;3.28;;;;;15.60;99984.00;;;;5086741;28;20032;-76
2021/06/27 02:18:06;;;;;;;10.73;3.25;;;;;15.60;99968.00;;;;5086673;28;20055;-76
2021/06/27 02:20:32;;;;;;;4.88;3.10;;;;;15.50;99971.00;;;;5087124;28;20047;-76
2021/06/27 02:22:59;;;;;;;7.55;3.25;;;;;15.50;99968.00;;;;5067884;28;20534;-77
2021/06/27 02:25:25;;;;;;;10.27;3.80;;;;;15.60;99964.00;;;;5086431;28;20043;-76
2021/06/27 02:27:54;;;;;;;9.48;4.18;;;;;15.60;99980.00;;;;5087712;28;20107;-77
2021/06/27 02:30:21;;;;;;;8.65;2.92;;;;;15.60;99967.00;;;;5090153;28;20058;-77
2021/06/27 02:32:48;;;;;;;13.38;3.95;;;;;15.60;99920.00;;;;5089531;28;20035;-76
2021/06/27 02:35:15;;;;;;;7.72;3.70;;;;;15.60;99950.00;;;;5089602;28;20031;-77
2021/06/27 02:37:43;;;;;;;26.85;6.03;;;;;15.70;99903.00;;;;5090093;28;20383;-78
2021/06/27 02:40:12;;;;;;;15.75;3.47;;;;;15.60;99826.00;;;;5089774;28;20036;-76
2021/06/27 02:42:39;;;;;;;7.82;2.40;;;;;15.70;99965.00;;;;5071369;28;20028;-73
2021/06/27 02:45:08;;;;;;;24.33;2.92;;;;;15.80;100043.00;;;;5089584;28;20035;-77
2021/06/27 02:47:36;;;;;;;13.93;3.28;;;;;15.90;100089.00;;;;5090115;28;20024;-79
2021/06/27 02:50:09;;;;;;;14.85;3.72;;;;;15.90;100092.00;;;;5089057;28;20043;-77
2021/06/27 02:52:36;;;;;;;27.42;3.70;;;;;15.90;100023.00;;;;5089694;28;20036;-77
2021/06/27 02:55:05;;;;;;;53.15;4.43;;;;;15.90;100058.00;;;;5089514;28;20051;-78
2021/06/27 02:57:32;;;;;;;30.40;3.45;;;;;15.80;100007.00;;;;5089975;28;20044;-81
2021/06/27 02:59:58;;;;;;;9.55;2.58;;;;;15.80;100039.00;;;;5089558;28;20552;-79
2021/06/27 03:02:25;;;;;;;9.27;2.90;;;;;15.80;100058.00;;;;5070085;28;20502;-78
2021/06/27 03:04:52;;;;;;;18.48;3.35;;;;;15.80;100070.00;;;;5070725;28;20391;-78
2021/06/27 03:07:18;;;;;;;3.15;2.30;;;;;15.80;100079.00;;;;5089157;28;20024;-78
2021/06/27 03:09:45;;;;;;;11.45;2.38;;;;;15.80;100116.00;;;;5089540;28;20090;-77
2021/06/27 03:12:12;;;;;;;15.38;2.33;;;;;15.80;100105.00;;;;5089761;28;20035;-75
2021/06/27 03:14:39;;;;;;;8.98;2.08;;;;;15.80;100102.00;;;;5090181;28;20117;-76
2021/06/27 03:17:06;;;;;;;4.28;1.90;;;;;15.80;100104.00;;;;5088402;28;20024;-75
2021/06/27 03:19:32;;;;;;;5.35;2.40;;;;;15.80;100131.00;;;;5088829;28;20097;-76
2021/06/27 03:21:59;;;;;;;8.07;2.80;;;;;15.80;100131.00;;;;5088801;28;20415;-75
2021/06/27 03:24:25;;;;;;;4.97;2.60;;;;;15.80;100102.00;;;;5088473;28;20032;-76
2021/06/27 03:26:52;;;;;;;9.52;2.78;;;;;15.80;100099.00;;;;5088206;28;20053;-78
2021/06/27 03:29:19;;;;;;;3.55;2.10;;;;;15.80;100088.00;;;;5088966;28;20032;-76
2021/06/27 03:31:45;;;;;;;6.50;2.22;;;;;15.90;100084.00;;;;5088855;28;20070;-76
2021/06/27 03:34:12;;;;;;;4.03;1.90;;;;;15.90;100105.00;;;;5088616;28;20028;-74
2021/06/27 03:36:38;;;;;;;5.75;2.10;;;;;15.90;100108.00;;;;5088870;28;20032;-77
2021/06/27 03:39:10;;;;;;;8.15;3.15;;;;;15.90;100106.00;;;;5088492;28;20497;-74
2021/06/27 03:41:46;;;;;;;3.60;2.22;;;;;15.90;100105.00;;;;5088294;28;20154;-74
2021/06/27 03:44:12;;;;;;;3.67;2.35;;;;;15.90;100079.00;;;;5088360;28;20142;-75
2021/06/27 03:46:39;;;;;;;18.63;2.90;;;;;15.90;100067.00;;;;5088592;28;20025;-77
2021/06/27 03:49:06;;;;;;;17.25;2.30;;;;;15.80;100050.00;;;;5070394;28;20114;-75
2021/06/27 03:51:32;;;;;;;4.65;1.50;;;;;15.90;100058.00;;;;5088555;28;20085;-76
2021/06/27 03:53:59;;;;;;;6.28;2.50;;;;;15.90;100064.00;;;;5088102;28;20417;-75
2021/06/27 03:56:26;;;;;;;10.90;1.40;;;;;15.90;100027.00;;;;5088023;28;20028;-75
2021/06/27 03:58:54;;;;;;;16.52;1.88;;;;;16.00;100079.00;;;;5087575;28;20048;-77
2021/06/27 04:01:21;;;;;;;1.50;1.15;;;;;16.00;100100.00;;;;5088326;28;20024;-78
2021/06/27 04:03:48;;;;;;;5.75;2.00;;;;;16.00;100089.00;;;;5089472;28;20032;-81
2021/06/27 04:06:14;;;;;;;10.25;1.92;;;;;16.00;100102.00;;;;5087883;28;20103;-80
2021/06/27 04:08:43;;;;;;;5.22;1.70;;;;;16.00;100090.00;;;;5088304;28;20093;-77
2021/06/27 04:11:10;;;;;;;6.55;1.63;;;;;16.00;100106.00;;;;5069424;28;20507;-79
2021/06/27 04:13:37;;;;;;;5.10;1.42;;;;;16.00;100088.00;;;;5087479;28;20082;-77
2021/06/27 04:16:05;;;;;;;21.10;2.28;;;;;15.90;100097.00;;;;5088164;28;20097;-78
2021/06/27 04:18:33;;;;;;;16.95;2.72;;;;;15.90;100099.00;;;;5087404;28;20410;-75
2021/06/27 04:21:00;;;;;;;23.65;2.80;;;;;15.90;100099.00;;;;5087723;28;20039;-77
2021/06/27 04:23:28;;;;;;;12.82;2.80;;;;;15.90;100077.00;;;;5087565;28;20027;-75
2021/06/27 04:25:55;;;;;;;11.65;3.10;;;;;15.80;100038.00;;;;5087531;28;20032;-75
2021/06/27 04:28:21;;;;;;;38.22;4.10;;;;;15.80;100023.00;;;;5088035;28;20457;-77
2021/06/27 04:30:48;;;;;;;22.98;2.78;;;;;15.80;99976.00;;;;5087798;28;20115;-75
2021/06/27 04:33:15;;;;;;;11.60;2.72;;;;;15.80;99973.00;;;;5087172;28;20415;-74
2021/06/27 04:35:41;;;;;;;3.08;2.20;;;;;15.80;99967.00;;;;5087318;28;20031;-75
2021/06/27 04:38:10;;;;;;;11.90;2.65;;;;;15.80;99985.00;;;;5087205;28;20028;-77
2021/06/27 04:40:37;;;;;;;4.13;1.80;;;;;15.80;100011.00;;;;5087294;28;20064;-75
2021/06/27 04:43:05;;;;;;;2.40;1.90;;;;;15.80;100012.00;;;;5087193;28;20877;-73
2021/06/27 04:45:33;;;;;;;2.38;1.75;;;;;15.80;100030.00;;;;5087259;28;20039;-76
2021/06/27 04:48:01;;;;;;;4.75;1.90;;;;;15.80;100026.00;;;;5087286;28;20035;-76
2021/06/27 04:50:27;;;;;;;4.22;1.83;;;;;15.80;100025.00;;;;5086982;28;20039;-76
2021/06/27 04:52:54;;;;;;;4.30;2.13;;;;;15.80;100043.00;;;;5086698;28;20020;-73
2021/06/27 04:55:21;;;;;;;7.00;2.60;;;;;15.80;100044.00;;;;5087587;28;20110;-75
2021/06/27 04:57:48;;;;;;;6.82;2.42;;;;;15.80;100036.00;;;;5086981;28;20052;-75
2021/06/27 05:00:15;;;;;;;6.55;2.58;;;;;15.80;100051.00;;;;5086991;28;20377;-76
2021/06/27 05:02:42;;;;;;;4.85;2.25;;;;;15.80;100077.00;;;;5068713;28;20039;-74
2021/06/27 05:05:10;;;;;;;4.97;2.28;;;;;15.80;100063.00;;;;5086766;28;20491;-75
2021/06/27 05:07:36;;;;;;;7.95;2.50;;;;;15.80;100079.00;;;;5086704;28;20031;-74
2021/06/27 05:10:04;;;;;;;3.95;2.63;;;;;15.80;100065.00;;;;5086845;28;20510;-76
2021/06/27 05:12:31;;;;;;;2.22;2.00;;;;;15.80;100084.00;;;;5086935;28;20040;-76
2021/06/27 05:14:58;;;;;;;3.95;2.05;;;;;15.80;100062.00;;;;5086912;28;20522;-75
2021/06/27 05:17:25;;;;;;;8.77;2.95;;;;;15.80;100092.00;;;;5086794;28;20024;-75
2021/06/27 05:19:51;;;;;;;6.43;2.85;;;;;15.70;100087.00;;;;5087117;28;20028;-75
2021/06/27 05:22:18;;;;;;;6.47;2.85;;;;;15.70;100084.00;;;;5087304;28;20683;-75
2021/06/27 05:24:44;;;;;;;5.28;2.83;;;;;15.70;100087.00;;;;5087492;28;20024;-77
2021/06/27 05:27:11;;;;;;;6.35;2.85;;;;;15.80;100069.00;;;;5086388;28;20437;-75
2021/06/27 05:29:38;;;;;;;11.70;3.20;;;;;15.70;100039.00;;;;5086985;28;20039;-75
2021/06/27 05:32:05;;;;;;;18.80;4.05;;;;;15.70;100026.00;;;;5086665;28;20031;-75
2021/06/27 05:34:31;;;;;;;11.20;3.38;;;;;15.70;100014.00;;;;5086615;28;20068;-77
2021/06/27 05:36:58;;;;;;;15.73;3.55;;;;;15.70;100024.00;;;;5087028;28;20515;-76
2021/06/27 05:39:25;;;;;;;6.55;3.45;;;;;15.70;100023.00;;;;5086885;28;20120;-74
2021/06/27 05:41:52;;;;;;;8.30;3.28;;;;;15.60;100024.00;;;;5086681;28;20122;-76
2021/06/27 05:44:22;;;;;;;7.85;3.03;;;;;15.60;100014.00;;;;5086757;28;20020;-77
2021/06/27 05:46:48;;;;;;;24.00;4.25;;;;;15.60;100016.00;;;;5086895;28;20028;-75
2021/06/27 05:49:15;;;;;;;12.45;3.05;;;;;15.60;100033.00;;;;5068298;28;20027;-76
2021/06/27 05:51:42;;;;;;;6.38;3.03;;;;;15.70;100037.00;;;;5086466;28;20486;-76
2021/06/27 05:54:09;;;;;;;8.18;3.70;;;;;15.60;100041.00;;;;5086192;28;20105;-74
2021/06/27 05:56:38;;;;;;;10.60;3.75;;;;;15.60;100038.00;;;;5086629;28;20024;-74
2021/06/27 05:59:05;;;;;;;7.07;3.75;;;;;15.60;100026.00;;;;5086616;28;20104;-76
2021/06/27 06:01:32;;;;;;;8.85;3.25;;;;;15.60;100010.00;;;;5086520;28;20067;-75
2021/06/27 06:03:59;;;;;;;21.23;3.58;;;;;15.60;100000.00;;;;5089150;28;20078;-75
2021/06/27 06:06:26;;;;;;;5.82;3.33;;;;;15.60;100019.00;;;;5090282;28;20024;-75
2021/06/27 06:08:52;;;;;;;8.95;3.42;;;;;15.60;100034.00;;;;5090327;28;20099;-76
2021/06/27 06:11:22;;;;;;;13.63;5.43;;;;;15.60;100018.00;;;;5072131;28;20020;-75
2021/06/27 06:13:48;;;;;;;12.65;4.10;;;;;15.60;100027.00;;;;5090100;28;20032;-76
2021/06/27 06:16:15;;;;;;;9.07;3.47;;;;;15.60;100008.00;;;;5089750;28;20107;-74
2021/06/27 06:18:43;;;;;;;4.95;3.13;;;;;15.70;100039.00;;;;5090085;28;20036;-75
2021/06/27 06:21:12;;;;;;;4.97;3.20;;;;;15.70;100035.00;;;;5089853;28;20031;-77
2021/06/27 06:23:39;;;;;;;6.38;3.17;;;;;15.60;100069.00;;;;5090302;28;20043;-75
2021/06/27 06:26:06;;;;;;;9.07;4.45;;;;;15.70;100070.00;;;;5089523;28;20459;-74
2021/06/27 06:28:33;;;;;;;11.70;5.68;;;;;15.70;100061.00;;;;5089628;28;20597;-75
2021/06/27 06:31:00;;;;;;;8.35;5.15;;;;;15.60;100080.00;;;;5089522;28;20024;-75
2021/06/27 06:33:26;;;;;;;15.63;7.20;;;;;15.60;100070.00;;;;5089798;28;20043;-75
2021/06/27 06:35:53;;;;;;;12.38;7.22;;;;;15.60;100095.00;;;;5089233;28;20024;-77
2021/06/27 06:38:20;;;;;;;16.27;8.63;;;;;15.60;100100.00;;;;5090541;28;20126;-78
2021/06/27 06:40:46;;;;;;;12.38;8.75;;;;;15.60;100089.00;;;;5089617;28;20073;-74
2021/06/27 06:43:13;;;;;;;13.63;8.88;;;;;15.60;100103.00;;;;5089741;28;20032;-75
2021/06/27 06:45:40;;;;;;;13.20;7.57;;;;;15.70;100098.00;;;;5089475;28;20052;-76
2021/06/27 06:48:07;;;;;;;11.85;8.38;;;;;15.70;100125.00;;;;5089350;28;20115;-77
2021/06/27 06:50:34;;;;;;;10.73;7.38;;;;;15.70;100128.00;;;;5089347;28;20157;-76
2021/06/27 06:53:00;;;;;;;8.07;5.70;;;;;15.70;100154.00;;;;5088916;28;20643;-76
2021/06/27 06:55:27;;;;;;;10.07;5.70;;;;;15.70;100167.00;;;;5089743;28;20364;-77
2021/06/27 06:57:55;;;;;;;4.88;3.50;;;;;15.70;100174.00;;;;5089153;28;20055;-73
2021/06/27 07:00:22;;;;;;;5.22;3.67;;;;;15.70;100173.00;;;;5089346;28;20032;-76
2021/06/27 07:02:49;;;;;;;8.73;4.13;;;;;15.60;100145.00;;;;5089497;28;20032;-76
2021/06/27 07:05:16;;;;;;;3.78;3.15;;;;;15.60;100142.00;;;;5089791;28;20080;-77
2021/06/27 07:07:45;;;;;;;3.15;2.67;;;;;15.60;100136.00;;;;5089693;28;20024;-77
2021/06/27 07:10:13;;;;;;;3.05;1.90;;;;;15.40;100169.00;;;;5089658;28;20035;-76
2021/06/27 07:12:40;;;;;;;0.98;0.98;;;;;15.30;100176.00;;;;5088768;28;20031;-76
2021/06/27 07:15:08;;;;;;;1.27;0.68;;;;;15.10;100186.00;;;;5088446;28;20036;-76
2021/06/27 07:17:34;;;;;;;0.30;0.30;;;;;14.70;100129.00;;;;5089185;28;20031;-78
2021/06/27 07:20:01;;;;;;;0.77;0.40;;;;;14.50;100110.00;;;;5088756;28;20036;-75
2021/06/27 07:22:27;;;;;;;1.88;0.60;;;;;14.30;100136.00;;;;5088665;28;20755;-74
2021/06/27 07:24:54;;;;;;;7.05;1.10;;;;;14.20;100123.00;;;;5088716;28;20491;-74
2021/06/27 07:27:20;;;;;;;3.88;0.80;;;;;14.20;100166.00;;;;5089090;28;20036;-76
2021/06/27 07:29:48;;;;;;;1.02;0.40;;;;;14.10;100182.00;;;;5088906;28;20040;-76
2021/06/27 07:32:14;;;;;;;2.05;0.60;;;;;14.00;100206.00;;;;5088837;28;20039;-75
2021/06/27 07:34:41;;;;;;;3.05;0.50;;;;;13.90;100211.00;;;;5088554;28;20031;-77
2021/06/27 07:37:08;;;;;;;1.00;0.60;;;;;13.90;100224.00;;;;5088625;28;20027;-75
2021/06/27 07:39:35;;;;;;;0.38;0.38;;;;;13.90;100230.00;;;;5088580;28;20069;-76
2021/06/27 07:42:01;;;;;;;0.90;0.40;;;;;13.80;100253.00;;;;5088144;28;20505;-77
2021/06/27 07:44:28;;;;;;;0.95;0.40;;;;;13.70;100216.00;;;;5070333;28;20039;-77
2021/06/27 07:46:55;;;;;;;3.40;0.50;;;;;13.70;100242.00;;;;5089060;28;20387;-77
2021/06/27 07:49:21;;;;;;;1.83;0.50;;;;;13.70;100258.00;;;;5088531;28;20051;-77
2021/06/27 07:51:48;;;;;;;6.03;0.40;;;;;13.60;100252.00;;;;5088209;28;20032;-75
2021/06/27 07:54:14;;;;;;;2.42;0.30;;;;;13.60;100256.00;;;;5087904;28;20056;-76
2021/06/27 07:56:41;;;;;;;0.40;0.40;;;;;13.50;100273.00;;;;5088986;28;20506;-76
2021/06/27 07:59:09;;;;;;;1.80;0.57;;;;;13.50;100258.00;;;;5070189;28;20101;-77
2021/06/27 08:01:35;;;;;;;5.30;0.60;;;;;13.50;100290.00;;;;5087720;28;20032;-76
2021/06/27 08:04:02;;;;;;;4.80;0.85;;;;;13.50;100294.00;;;;5088225;28;20035;-76
2021/06/27 08:06:28;;;;;;;0.90;0.80;;;;;13.40;100283.00;;;;5087936;28;20039;-76
2021/06/27 08:08:55;;;;;;;0.55;0.55;;;;;13.30;100294.00;;;;5088336;28;20023;-76
2021/06/27 08:11:22;;;;;;;2.05;0.70;;;;;13.20;100306.00;;;;5088008;28;20028;-77
2021/06/27 08:13:48;;;;;;;1.25;0.65;;;;;13.10;100348.00;;;;5087804;28;20406;-75
2021/06/27 08:16:15;;;;;;;6.05;3.70;;;;;13.00;100342.00;;;;5088348;28;20107;-76
2021/06/27 08:18:42;;;;;;;3.65;0.70;;;;;13.00;100370.00;;;;5087896;28;20050;-76
2021/06/27 08:21:08;;;;;;;1.27;0.70;;;;;12.90;100367.00;;;;5088653;28;20573;-74
2021/06/27 08:23:35;;;;;;;3.47;1.30;;;;;12.90;100370.00;;;;5087629;28;20040;-77
2021/06/27 08:26:01;;;;;;;2.47;0.90;;;;;12.90;100361.00;;;;5087309;28;20035;-76
2021/06/27 08:28:28;;;;;;;1.30;0.90;;;;;12.80;100368.00;;;;5088238;28;20123;-76
2021/06/27 08:30:55;;;;;;;4.30;1.10;;;;;12.80;100382.00;;;;5087274;28;20062;-78
2021/06/27 08:33:21;;;;;;;2.78;0.95;;;;;12.80;100376.00;;;;5087869;28;20073;-76
2021/06/27 08:35:48;;;;;;;2.28;0.70;;;;;12.80;100375.00;;;;5087386;28;20039;-76
2021/06/27 08:38:16;;;;;;;0.80;0.80;;;;;12.80;100387.00;;;;5087700;28;20060;-77
2021/06/27 08:40:42;;;;;;;1.63;0.70;;;;;12.80;100387.00;;;;5087036;28;20364;-77
2021/06/27 08:43:11;;;;;;;1.05;1.00;;;;;12.80;100376.00;;;;5087532;28;20050;-77
2021/06/27 08:45:51;;;;;;;1.27;0.90;;;;;12.70;100397.00;;;;5087372;28;20447;-77
2021/06/27 08:48:20;;;;;;;0.80;0.80;;;;;12.70;100413.00;;;;5087563;28;20119;-76
2021/06/27 08:50:51;;;;;;;1.45;0.90;;;;;12.60;100437.00;;;;5087505;28;20051;-76
2021/06/27 08:53:18;;;;;;;1.20;1.10;;;;;12.60;100418.00;;;;5087626;28;20109;-74
2021/06/27 08:55:45;;;;;;;1.77;1.02;;;;;12.50;100416.00;;;;5087241;28;20037;-76
2021/06/27 08:58:12;;;;;;;1.88;0.95;;;;;12.50;100409.00;;;;5087310;28;20544;-76
2021/06/27 09:00:39;;;;;;;4.25;1.20;;;;;12.40;100418.00;;;;5087093;28;20057;-77
2021/06/27 09:03:06;;;;;;;4.68;1.50;;;;;12.40;100415.00;;;;5086801;28;20081;-77
2021/06/27 09:05:34;;;;;;;1.90;1.42;;;;;12.40;100395.00;;;;5087114;28;20404;-77
2021/06/27 09:08:17;;;;;;;2.83;1.70;;;;;12.30;100396.00;;;;5087067;28;20035;-77
2021/06/27 09:10:45;;;;;;;1.63;1.50;;;;;12.30;100406.00;;;;5087015;28;20085;-75
2021/06/27 09:13:12;;;;;;;1.65;1.55;;;;;12.30;100404.00;;;;5087643;28;20426;-75
2021/06/27 09:15:47;;;;;;;1.98;1.60;;;;;12.30;100407.00;;;;5086964;28;20063;-77
2021/06/27 09:18:16;;;;;;;4.38;1.95;;;;;12.20;100407.00;;;;5086886;28;20456;-76
2021/06/27 09:20:48;;;;;;;3.20;2.10;;;;;12.20;100405.00;;;;5087254;28;20391;-75
2021/06/27 09:23:17;;;;;;;3.05;2.65;;;;;12.10;100409.00;;;;5086617;28;20078;-75
2021/06/27 09:25:45;;;;;;;6.53;2.20;;;;;12.10;100412.00;;;;5087207;28;20528;-76
2021/06/27 09:28:15;;;;;;;2.95;2.55;;;;;12.00;100444.00;;;;5086720;28;20024;-75
2021/06/27 09:30:50;;;;;;;4.03;2.63;;;;;12.00;100459.00;;;;5086513;28;20031;-75
2021/06/27 09:33:32;;;;;;;3.35;2.50;;;;;12.00;100483.00;;;;5086927;28;20028;-76
2021/06/27 09:36:08;;;;;;;2.65;2.45;;;;;12.00;100498.00;;;;5086827;28;20024;-77
2021/06/27 09:38:49;;;;;;;4.85;2.80;;;;;12.00;100514.00;;;;5089382;28;20023;-74
2021/06/27 09:41:32;;;;;;;4.47;3.10;;;;;12.00;100498.00;;;;5091482;28;20873;-75
2021/06/27 09:44:09;;;;;;;4.72;2.80;;;;;12.00;100497.00;;;;5091126;28;20487;-75
2021/06/27 09:46:42;;;;;;;3.50;2.88;;;;;11.90;100512.00;;;;5090340;28;20712;-77
2021/06/27 09:49:16;;;;;;;6.35;3.30;;;;;12.00;100493.00;;;;5072677;28;20028;-76
2021/06/27 09:51:50;;;;;;;9.20;2.90;;;;;11.90;100464.00;;;;5090787;28;20080;-76
2021/06/27 09:54:22;;;;;;;4.88;3.10;;;;;11.90;100494.00;;;;5090781;28;20028;-75
2021/06/27 09:56:49;;;;;;;3.63;2.90;;;;;11.90;100510.00;;;;5090599;28;20024;-75
2021/06/27 09:59:21;;;;;;;4.95;2.80;;;;;11.90;100498.00;;;;5089990;28;20035;-76
2021/06/27 10:01:48;;;;;;;3.20;2.90;;;;;11.90;100527.00;;;;5090795;28;20050;-77
2021/06/27 10:04:30;;;;;;;4.82;3.10;;;;;11.90;100508.00;;;;5091086;28;20471;-75
2021/06/27 10:06:59;;;;;;;32.58;29.35;;;;;11.80;100541.00;;;;5090739;28;21009;-75
2021/06/27 10:09:30;;;;;;;3.33;3.03;;;;;11.80;100543.00;;;;5090256;28;20028;-77
2021/06/27 10:12:12;;;;;;;6.50;3.22;;;;;11.80;100525.00;;;;5090124;28;20028;-77
2021/06/27 10:14:51;;;;;;;6.80;2.88;;;;;11.80;100533.00;;;;5090367;28;20025;-75
2021/06/27 10:17:20;;;;;;;6.47;3.33;;;;;11.70;100540.00;;;;5089974;28;20032;-75
2021/06/27 10:19:48;;;;;;;3.75;3.20;;;;;11.80;100561.00;;;;5089783;28;20411;-76
2021/06/27 10:22:15;;;;;;;4.53;3.20;;;;;11.70;100560.00;;;;5090199;28;20032;-76
2021/06/27 10:24:41;;;;;;;5.55;3.63;;;;;11.70;100568.00;;;;5089828;28;20036;-74
2021/06/27 10:27:09;;;;;;;3.75;3.25;;;;;11.70;100574.00;;;;5090398;28;20089;-77
2021/06/27 10:29:44;;;;;;;4.15;3.72;;;;;11.80;100563.00;;;;5090124;28;20032;-75
2021/06/27 10:32:11;;;;;;;4.70;3.45;;;;;11.80;100592.00;;;;5089754;28;20074;-76
2021/06/27 10:34:38;;;;;;;3.30;3.00;;;;;11.80;100604.00;;;;5089663;28;20390;-76
2021/06/27 10:37:08;;;;;;;4.03;3.70;;;;;11.80;100607.00;;;;5089506;28;20028;-76
2021/06/27 10:39:35;;;;;;;8.48;3.45;;;;;11.70;100580.00;;;;5089846;28;20043;-74
2021/06/27 10:42:04;;;;;;;3.88;3.45;;;;;11.70;100539.00;;;;5089322;28;20055;-75
2021/06/27 10:44:37;;;;;;;4.80;3.53;;;;;11.70;100596.00;;;;5089548;28;20110;-75
2021/06/27 10:47:05;;;;;;;3.72;3.38;;;;;11.60;100586.00;;;;5089784;28;20032;-75
2021/06/27 10:49:32;;;;;;;5.50;4.70;;;;;11.60;100612.00;;;;5089629;28;20035;-76
2021/06/27 10:52:05;;;;;;;4.78;3.95;;;;;11.60;100607.00;;;;5090076;28;20099;-74
2021/06/27 10:54:33;;;;;;;4.60;4.15;;;;;11.60;100591.00;;;;5089554;28;20046;-75
2021/06/27 10:57:06;;;;;;;3.75;3.45;;;;;11.60;100605.00;;;;5089754;28;20365;-76
2021/06/27 10:59:47;;;;;;;6.32;3.95;;;;;11.60;100582.00;;;;5089358;28;20043;-76
2021/06/27 11:02:21;;;;;;;4.10;3.70;;;;;11.60;100576.00;;;;5089325;28;20028;-77
2021/06/27 11:04:51;;;;;;;5.43;3.80;;;;;11.60;100575.00;;;;5089578;28;20039;-75
2021/06/27 11:07:33;;;;;;;4.00;3.60;;;;;11.60;100607.00;;;;5088971;28;20047;-77
2021/06/27 11:10:21;;;;;;;5.60;3.70;;;;;11.60;100598.00;;;;5088943;28;20032;-78
2021/06/27 11:12:56;;;;;;;8.68;4.55;;;;;11.50;100594.00;;;;5089342;28;20063;-76
2021/06/27 11:15:25;;;;;;;7.63;4.35;;;;;11.50;100587.00;;;;5088811;28;20036;-75
2021/06/27 11:17:56;;;;;;;5.82;4.25;;;;;11.50;100592.00;;;;5089002;28;20404;-76
2021/06/27 11:20:25;;;;;;;6.03;3.30;;;;;11.50;100600.00;;;;5089251;28;20059;-76
2021/06/27 11:22:55;;;;;;;3.88;3.30;;;;;11.50;100594.00;;;;5088860;28;20040;-76
2021/06/27 11:25:41;;;;;;;5.80;3.90;;;;;11.50;100608.00;;;;5089039;28;20027;-76
2021/06/27 11:28:20;;;;;;;4.78;4.00;;;;;11.50;100590.00;;;;5088678;28;20028;-76
2021/06/27 11:31:28;;;;;;;5.35;3.10;;;;;11.50;100614.00;;;;5088300;28;20107;-75
2021/06/27 11:34:28;;;;;;;3.88;2.70;;;;;11.40;100620.00;;;;5088928;28;20075;-73
2021/06/27 11:37:21;;;;;;;6.82;2.78;;;;;11.40;100604.00;;;;5088471;28;20032;-76
2021/06/27 11:39:51;;;;;;;2.85;2.63;;;;;11.30;100615.00;;;;5088568;28;20119;-76
2021/06/27 11:42:23;;;;;;;6.25;5.45;;;;;11.30;100615.00;;;;5088099;28;20205;-76
2021/06/27 11:45:11;;;;;;;7.85;2.65;;;;;11.40;100621.00;;;;5088455;28;20078;-75
2021/06/27 11:47:50;;;;;;;7.47;2.85;;;;;11.40;100612.00;;;;5088636;28;20036;-76
2021/06/27 11:50:17;;;;;;;6.75;3.10;;;;;11.30;100608.00;;;;5088698;28;20024;-75
2021/06/27 11:52:44;;;;;;;6.75;2.90;;;;;11.40;100621.00;;;;5088488;28;20020;-75
2021/06/27 11:55:11;;;;;;;7.72;2.75;;;;;11.40;100632.00;;;;5088374;28;20110;-75
2021/06/27 11:57:41;;;;;;;4.13;2.92;;;;;11.40;100653.00;;;;5087913;28;20493;-75
2021/06/27 12:00:10;;;;;;;4.13;2.70;;;;;11.40;100646.00;;;;5087379;28;20735;-75
2021/06/27 12:02:37;;;;;;;5.10;3.22;;;;;11.50;100633.00;;;;5088205;28;20142;-74
2021/06/27 12:05:09;;;;;;;5.55;2.60;;;;;11.50;100627.00;;;;5087973;28;20455;-75
2021/06/27 12:07:42;;;;;;;4.05;2.40;;;;;11.50;100664.00;;;;5088182;28;20031;-75
2021/06/27 12:10:18;;;;;;;3.35;2.60;;;;;11.60;100689.00;;;;5088119;28;20391;-76
2021/06/27 12:12:47;;;;;;;6.38;2.97;;;;;11.70;100682.00;;;;5088065;28;20020;-75
2021/06/27 12:15:20;;;;;;;3.03;2.70;;;;;11.70;100710.00;;;;5087943;28;20039;-76
2021/06/27 12:17:49;;;;;;;2.60;2.40;;;;;11.70;100694.00;;;;5087122;28;20039;-75